Gouwestroom — PDGR — position and weather

sailwx.info

Track history (hours):
 
Tides and Currents Weather Stations Pressure Air Temp Water Temp Dewpoint Dewpoint Depression Visibility Wind Speed Wind Dir Waves Ship Positions

Gouwestroom

Last reported at 2017-Feb-25 04:33 UTC. Time now 2017-Feb-25 05:24 UTC.
Position N 51°53' E 004°27'.

Length 20 m; draft 2.2 m.

Type: Tug. MMSI: 246166000.

Date/timePositionNaut miles runAvg speedWind from/ knotsBaromVisibWave heightAir tempDewpointWater temp
2017-Feb-25 04:33N 51°53' E 004°27'0 0.0
2017-Feb-25 03:33N 51°53' E 004°27'0 0.0
2017-Feb-25 02:33N 51°53' E 004°27'0 0.0
2017-Feb-25 01:33N 51°53' E 004°27'0 0.0
2017-Feb-25 00:33N 51°53' E 004°27'0 0.0
2017-Feb-24 23:33N 51°53' E 004°27'0 0.0
2017-Feb-24 22:33N 51°53' E 004°27'0 0.0
2017-Feb-24 21:34N 51°53' E 004°27'0 0.0
2017-Feb-24 20:33N 51°53' E 004°27'2 1.5
2017-Feb-24 19:34N 51°54' E 004°25'7 6.9
2017-Feb-24 18:34N 51°55' E 004°14'6 5.6
2017-Feb-24 17:33N 51°59' E 004°07'5 5.0
2017-Feb-24 16:33N 51°55' E 004°14'8 8.0
2017-Feb-24 15:33N 51°51' E 004°24'7 6.9
2017-Feb-24 14:33N 51°48' E 004°35'3 2.5
2017-Feb-24 13:34N 51°48' E 004°39'0 0.0
2017-Feb-24 12:33N 51°48' E 004°39'0 0.0
2017-Feb-24 11:33N 51°48' E 004°39'0 0.0
2017-Feb-24 10:33N 51°48' E 004°39'5 5.2
2017-Feb-24 09:33N 51°49' E 004°47'3 2.8
2017-Feb-24 08:33N 51°49' E 004°52'0 0.0
2017-Feb-24 07:33N 51°49' E 004°52'  
2017-Feb-18 08:18N 51°49' E 004°52'0 0.1
2017-Feb-18 07:33N 51°49' E 004°52'0 0.1
2017-Feb-18 06:33N 51°49' E 004°52'  
Track history (hours):
 
Tides and Currents Weather Stations Pressure Air Temp Water Temp Dewpoint Dewpoint Depression Visibility Wind Speed Wind Dir Waves Ship Positions

Gouwestroom

Last reported at 2017-Feb-25 04:33 UTC. Time now 2017-Feb-25 05:24 UTC.
Position N 51°53' E 004°27'.

Length 20 m; draft 2.2 m.

Type: Tug. MMSI: 246166000.

Date/timePositionNaut miles runAvg speedWind from/ knotsBaromVisibWave heightAir tempDewpointWater temp
2017-Feb-25 04:33N 51°53' E 004°27'0 0.0
2017-Feb-25 03:33N 51°53' E 004°27'0 0.0
2017-Feb-25 02:33N 51°53' E 004°27'0 0.0
2017-Feb-25 01:33N 51°53' E 004°27'0 0.0
2017-Feb-25 00:33N 51°53' E 004°27'0 0.0
2017-Feb-24 23:33N 51°53' E 004°27'0 0.0
2017-Feb-24 22:33N 51°53' E 004°27'0 0.0
2017-Feb-24 21:34N 51°53' E 004°27'0 0.0
2017-Feb-24 20:33N 51°53' E 004°27'2 1.5
2017-Feb-24 19:34N 51°54' E 004°25'7 6.9
2017-Feb-24 18:34N 51°55' E 004°14'6 5.6
2017-Feb-24 17:33N 51°59' E 004°07'5 5.0
2017-Feb-24 16:33N 51°55' E 004°14'8 8.0
2017-Feb-24 15:33N 51°51' E 004°24'7 6.9
2017-Feb-24 14:33N 51°48' E 004°35'3 2.5
2017-Feb-24 13:34N 51°48' E 004°39'0 0.0
2017-Feb-24 12:33N 51°48' E 004°39'0 0.0
2017-Feb-24 11:33N 51°48' E 004°39'0 0.0
2017-Feb-24 10:33N 51°48' E 004°39'5 5.2
2017-Feb-24 09:33N 51°49' E 004°47'3 2.8
2017-Feb-24 08:33N 51°49' E 004°52'0 0.0
2017-Feb-24 07:33N 51°49' E 004°52'  
2017-Feb-18 08:18N 51°49' E 004°52'0 0.1
2017-Feb-18 07:33N 51°49' E 004°52'0 0.1
2017-Feb-18 06:33N 51°49' E 004°52'  

Dump ship's entire track history